Time;durP1;ratioP1;P1;durP2;ratioP2;P2;SDS_P1;SDS_P2;PMS_P1;PMS_P2;Temp;Humidity;BMP_temperature;BMP_pressure;BME280_temperature;BME280_humidity;BME280_pressure;Samples;Min_cycle;Max_cycle;Signal;HPM_P1;HPM_P2
2023/07/10 00:01:56;;;;;;;17.48;12.57;;;;;;;20.11;100.00;101822.28;5065922;28;20041;-76
2023/07/10 00:04:23;;;;;;;17.88;12.75;;;;;;;20.14;100.00;101819.44;5063721;28;20076;-76
2023/07/10 00:06:50;;;;;;;22.02;13.48;;;;;;;20.15;100.00;101814.94;5065714;28;20147;-77
2023/07/10 00:09:17;;;;;;;18.35;12.63;;;;;;;20.14;100.00;101815.91;5067757;28;20162;-76
2023/07/10 00:11:45;;;;;;;17.45;11.68;;;;;;;20.14;99.68;101821.28;5067624;28;20045;-76
2023/07/10 00:14:21;;;;;;;18.60;11.90;;;;;;;20.11;99.59;101824.09;5066791;28;20048;-77
2023/07/10 00:16:50;;;;;;;15.75;11.05;;;;;;;20.10;99.93;101819.69;5065698;28;20044;-77
2023/07/10 00:19:18;;;;;;;17.05;11.40;;;;;;;20.07;99.49;101818.06;5066719;28;20041;-77
2023/07/10 00:21:49;;;;;;;17.45;11.68;;;;;;;20.06;99.66;101819.00;5065417;28;20045;-77
2023/07/10 00:24:16;;;;;;;17.35;11.48;;;;;;;20.06;99.62;101824.34;5066284;28;20099;-76
2023/07/10 00:26:43;;;;;;;18.63;11.50;;;;;;;20.05;99.44;101825.31;5062245;28;20111;-77
2023/07/10 00:29:31;;;;;;;22.27;12.65;;;;;;;20.05;99.19;101819.06;5063103;28;20038;-76
2023/07/10 00:32:05;;;;;;;19.58;12.32;;;;;;;20.00;99.31;101811.28;5079907;28;20044;-76
2023/07/10 00:34:32;;;;;;;19.48;11.85;;;;;;;19.99;99.63;101817.63;5067408;28;20053;-77
2023/07/10 00:36:59;;;;;;;16.20;11.88;;;;;;;19.96;98.72;101820.47;5067482;28;20048;-76
2023/07/10 00:39:30;;;;;;;15.82;11.52;;;;;;;19.92;98.87;101816.22;5064481;28;20044;-76
2023/07/10 00:42:02;;;;;;;18.45;11.32;;;;;;;19.89;98.66;101811.91;5067675;28;20559;-77
2023/07/10 00:44:40;;;;;;;17.60;11.40;;;;;;;19.86;98.44;101817.41;5053656;28;20486;-77
2023/07/10 00:47:34;;;;;;;18.95;11.80;;;;;;;19.82;98.08;101810.47;5057508;28;20047;-77
2023/07/10 00:50:25;;;;;;;16.23;11.00;;;;;;;19.77;98.19;101815.19;5069891;28;20067;-75
2023/07/10 00:52:53;;;;;;;17.65;11.35;;;;;;;19.71;98.07;101811.91;5053828;28;20045;-78
2023/07/10 00:55:32;;;;;;;19.85;11.52;;;;;;;19.67;98.22;101815.69;5064754;28;20072;-74
2023/07/10 00:58:32;;;;;;;16.23;11.07;;;;;;;19.60;98.63;101814.31;5064774;28;20096;-73
2023/07/10 01:01:09;;;;;;;17.27;11.38;;;;;;;19.53;99.07;101812.91;5063402;28;20129;-73
2023/07/10 01:03:41;;;;;;;16.35;11.50;;;;;;;19.48;99.52;101804.25;5062743;28;20044;-72
2023/07/10 01:06:14;;;;;;;21.77;12.57;;;;;;;19.42;100.00;101797.41;5067008;28;20576;-73
2023/07/10 01:08:50;;;;;;;18.95;11.73;;;;;;;19.40;100.00;101788.59;5064805;28;20045;-74
2023/07/10 01:11:19;;;;;;;20.02;11.45;;;;;;;19.42;100.00;101796.56;5065838;28;20497;-74
2023/07/10 01:13:51;;;;;;;21.65;12.75;;;;;;;19.35;100.00;101796.00;5065077;28;20099;-75
2023/07/10 01:16:21;;;;;;;18.27;12.20;;;;;;;19.29;100.00;101802.53;5066596;28;20357;-76
2023/07/10 01:18:50;;;;;;;17.05;12.00;;;;;;;19.23;100.00;101801.06;5066704;28;20099;-76
2023/07/10 01:21:31;;;;;;;20.00;12.57;;;;;;;19.19;100.00;101812.84;5064650;28;20103;-75
2023/07/10 01:24:04;;;;;;;18.15;11.85;;;;;;;19.14;100.00;101822.03;5061784;28;20545;-74
2023/07/10 01:26:36;;;;;;;21.33;11.77;;;;;;;19.10;100.00;101818.66;5063744;28;20487;-74
2023/07/10 01:29:03;;;;;;;17.13;11.23;;;;;;;19.08;100.00;101828.53;5063099;28;20072;-75
2023/07/10 01:31:31;;;;;;;23.30;12.18;;;;;;;19.04;100.00;101818.97;5057571;28;20041;-76
2023/07/10 01:34:03;;;;;;;18.60;12.02;;;;;;;19.01;100.00;101827.13;5062529;28;20702;-76
2023/07/10 01:36:39;;;;;;;18.38;11.98;;;;;;;19.00;100.00;101823.63;5062003;28;20072;-76
2023/07/10 01:39:29;;;;;;;18.50;12.32;;;;;;;18.96;100.00;101834.53;5056957;28;20093;-76
2023/07/10 01:41:57;;;;;;;20.48;13.07;;;;;;;18.95;100.00;101830.13;5063412;28;20087;-76
2023/07/10 01:44:35;;;;;;;21.60;13.63;;;;;;;18.93;100.00;101833.75;5065477;28;20519;-74
2023/07/10 01:47:07;;;;;;;24.40;13.65;;;;;;;18.92;100.00;101828.44;5064673;28;20049;-73
2023/07/10 01:49:43;;;;;;;21.45;13.75;;;;;;;18.91;100.00;101830.25;5060060;28;20847;-74
2023/07/10 01:52:16;;;;;;;21.70;14.13;;;;;;;18.89;100.00;101831.25;5064087;28;20090;-74
2023/07/10 01:54:43;;;;;;;25.65;14.85;;;;;;;18.89;100.00;101832.13;5063400;28;20079;-73
2023/07/10 01:57:13;;;;;;;23.33;15.07;;;;;;;18.89;100.00;101824.09;5063701;28;20045;-74
2023/07/10 01:59:40;;;;;;;20.15;15.20;;;;;;;18.89;100.00;101824.09;5063114;28;20048;-74
2023/07/10 02:02:08;;;;;;;22.60;15.10;;;;;;;18.88;100.00;101830.38;5063980;28;20063;-74
2023/07/10 02:04:35;;;;;;;25.05;15.88;;;;;;;18.88;100.00;101833.06;5064383;28;20439;-74
2023/07/10 02:07:03;;;;;;;23.80;16.35;;;;;;;18.89;100.00;101829.44;5061826;28;20045;-75
2023/07/10 02:09:31;;;;;;;24.67;16.17;;;;;;;18.91;100.00;101829.38;5064197;28;20116;-74
2023/07/10 02:12:00;;;;;;;26.95;16.35;;;;;;;18.92;100.00;101833.78;5059973;28;20118;-74
2023/07/10 02:14:28;;;;;;;31.13;17.73;;;;;;;18.93;100.00;101846.22;5063134;28;20048;-74
2023/07/10 02:16:55;;;;;;;23.38;16.38;;;;;;;18.95;100.00;101843.47;5061657;28;20041;-75
2023/07/10 02:19:23;;;;;;;24.70;16.27;;;;;;;18.94;100.00;101845.28;5064870;28;20112;-75
2023/07/10 02:21:50;;;;;;;26.00;16.92;;;;;;;18.92;100.00;101831.97;5062832;28;20549;-75
2023/07/10 02:24:17;;;;;;;25.95;16.27;;;;;;;18.91;100.00;101840.94;5061245;28;20144;-75
2023/07/10 02:26:44;;;;;;;26.00;17.55;;;;;;;18.88;100.00;101833.06;5062910;28;20051;-77
2023/07/10 02:29:11;;;;;;;25.38;16.90;;;;;;;18.86;100.00;101847.44;5064049;28;20102;-75
2023/07/10 02:31:38;;;;;;;26.35;17.65;;;;;;;18.84;100.00;101847.53;5061476;28;20045;-74
2023/07/10 02:34:05;;;;;;;25.90;17.35;;;;;;;18.82;100.00;101854.75;5059981;28;20619;-74
2023/07/10 02:36:34;;;;;;;23.90;16.17;;;;;;;18.82;100.00;101864.56;5063373;28;20128;-77
2023/07/10 02:39:01;;;;;;;26.73;16.90;;;;;;;18.80;100.00;101866.44;5063623;28;20045;-76
2023/07/10 02:41:29;;;;;;;23.23;16.20;;;;;;;18.78;100.00;101872.72;5064196;28;20034;-75
2023/07/10 02:43:56;;;;;;;25.63;17.45;;;;;;;18.84;100.00;101871.56;5062781;28;20053;-76
2023/07/10 02:46:23;;;;;;;28.90;17.17;;;;;;;18.87;100.00;101868.72;5065747;28;20500;-76
2023/07/10 02:48:50;;;;;;;27.48;16.10;;;;;;;18.89;100.00;101869.50;5062959;28;20076;-76
2023/07/10 02:51:17;;;;;;;23.30;16.67;;;;;;;18.90;100.00;101873.91;5064229;28;20577;-74
2023/07/10 02:53:45;;;;;;;27.15;16.60;;;;;;;18.90;100.00;101881.09;5060315;28;20041;-74
2023/07/10 02:56:12;;;;;;;24.83;16.05;;;;;;;18.91;100.00;101870.31;5062043;28;20045;-74
2023/07/10 02:58:39;;;;;;;28.02;15.88;;;;;;;18.94;100.00;101882.69;5059350;28;20980;-74
2023/07/10 03:01:06;;;;;;;25.27;16.42;;;;;;;18.96;100.00;101874.59;5062917;28;20044;-74
2023/07/10 03:03:33;;;;;;;21.02;15.27;;;;;;;19.00;100.00;101873.50;5065722;28;20114;-75
2023/07/10 03:06:02;;;;;;;22.77;15.55;;;;;;;19.04;100.00;101872.41;5067599;28;20045;-73
2023/07/10 03:08:30;;;;;;;25.13;16.33;;;;;;;19.03;100.00;101854.66;5066690;28;20052;-73
2023/07/10 03:11:07;;;;;;;25.90;16.52;;;;;;;19.00;100.00;101858.34;5068126;28;20053;-74
2023/07/10 03:13:36;;;;;;;23.52;15.77;;;;;;;18.99;100.00;101875.31;5064729;28;20350;-74
2023/07/10 03:16:08;;;;;;;23.80;15.23;;;;;;;19.00;100.00;101879.72;5070776;28;20061;-74
2023/07/10 03:18:37;;;;;;;25.10;14.95;;;;;;;18.99;100.00;101878.00;5066302;28;20144;-76
2023/07/10 03:21:06;;;;;;;25.17;15.50;;;;;;;19.01;100.00;101886.81;5069875;28;20045;-76
2023/07/10 03:23:34;;;;;;;23.73;15.52;;;;;;;19.03;100.00;101878.69;5067700;28;20041;-76
2023/07/10 03:26:01;;;;;;;19.38;14.63;;;;;;;19.06;100.00;101889.25;5064856;28;20162;-74
2023/07/10 03:28:34;;;;;;;24.42;15.00;;;;;;;19.07;100.00;101878.47;5064014;28;20053;-74
2023/07/10 03:31:01;;;;;;;23.73;15.43;;;;;;;19.08;100.00;101868.63;5065923;28;20103;-74
2023/07/10 03:33:29;;;;;;;23.80;15.05;;;;;;;19.07;100.00;101872.28;5066358;28;20631;-73
2023/07/10 03:36:06;;;;;;;22.50;14.32;;;;;;;19.06;100.00;101892.75;5066991;28;20068;-73
2023/07/10 03:38:34;;;;;;;20.33;14.30;;;;;;;19.02;99.75;101893.00;5063462;28;20103;-73
2023/07/10 03:41:04;;;;;;;25.05;13.90;;;;;;;18.98;99.66;101905.66;5060581;28;20037;-73
2023/07/10 03:43:31;;;;;;;22.55;13.95;;;;;;;18.96;99.36;101904.00;5066591;28;20134;-73
2023/07/10 03:45:58;;;;;;;21.13;13.70;;;;;;;18.93;99.38;101903.19;5067745;28;20045;-73
2023/07/10 03:48:26;;;;;;;19.60;13.45;;;;;;;18.92;99.03;101919.28;5067164;28;20060;-73
2023/07/10 03:50:53;;;;;;;21.08;13.95;;;;;;;18.89;98.80;101924.75;5067148;28;20053;-73
2023/07/10 03:53:20;;;;;;;20.35;13.23;;;;;;;18.86;99.03;101911.56;5066302;28;20490;-72
2023/07/10 03:55:52;;;;;;;18.77;12.63;;;;;;;18.89;99.67;101924.75;5063837;28;20103;-73
2023/07/10 03:58:32;;;;;;;20.30;11.90;;;;;;;18.92;99.35;101913.94;5066033;28;20076;-72
2023/07/10 04:01:02;;;;;;;16.45;12.38;;;;;;;18.93;98.93;101921.03;5059408;28;20047;-73
2023/07/10 04:03:33;;;;;;;19.50;12.20;;;;;;;18.92;99.01;101922.81;5064406;28;20048;-73
2023/07/10 04:06:01;;;;;;;14.65;11.25;;;;;;;18.91;99.09;101925.56;5067424;28;20575;-73
2023/07/10 04:08:36;;;;;;;16.95;11.43;;;;;;;18.91;99.23;101923.75;5065845;28;20053;-73
2023/07/10 04:11:17;;;;;;;18.10;10.85;;;;;;;18.91;98.42;101915.72;5066477;28;20465;-74
2023/07/10 04:13:45;;;;;;;18.58;11.73;;;;;;;18.87;98.14;101916.81;5066730;28;20056;-72
2023/07/10 04:16:22;;;;;;;15.98;9.98;;;;;;;18.82;96.88;101915.31;5066634;28;20041;-73
2023/07/10 04:18:52;;;;;;;15.73;9.77;;;;;;;18.74;97.18;101916.53;5067232;28;20045;-74
2023/07/10 04:21:23;;;;;;;16.83;10.40;;;;;;;18.70;96.40;101920.31;5065851;28;20045;-73
2023/07/10 04:23:51;;;;;;;14.90;9.30;;;;;;;18.63;95.32;101921.53;5068401;28;20495;-74
2023/07/10 04:26:32;;;;;;;15.70;9.35;;;;;;;18.56;95.36;101926.31;5066026;28;20157;-73
2023/07/10 04:29:06;;;;;;;16.23;9.60;;;;;;;18.55;95.48;101929.03;5066140;28;20087;-74
2023/07/10 04:31:34;;;;;;;13.38;9.20;;;;;;;18.51;95.30;101938.13;5066350;28;20049;-74
2023/07/10 04:34:02;;;;;;;14.02;9.30;;;;;;;18.49;95.59;101943.53;5065694;28;20037;-74
2023/07/10 04:36:29;;;;;;;15.35;9.73;;;;;;;18.50;95.06;101949.75;5054130;28;20056;-74
2023/07/10 04:38:57;;;;;;;18.67;9.65;;;;;;;18.47;95.05;101943.63;5057447;28;20132;-74
2023/07/10 04:41:24;;;;;;;16.30;9.45;;;;;;;18.48;94.26;101941.78;5060493;28;20562;-74
2023/07/10 04:43:52;;;;;;;20.88;10.40;;;;;;;18.43;94.13;101943.81;5058335;28;20546;-74
2023/07/10 04:46:20;;;;;;;14.27;9.30;;;;;;;18.40;94.28;101942.16;5058120;28;20050;-75
2023/07/10 04:48:48;;;;;;;15.52;9.85;;;;;;;18.38;94.03;101938.69;5065760;28;20041;-75
2023/07/10 04:51:18;;;;;;;15.90;9.75;;;;;;;18.40;94.45;101938.63;5063030;28;20092;-73
2023/07/10 04:53:47;;;;;;;17.80;9.55;;;;;;;18.40;94.17;101935.94;5059933;28;20045;-76
2023/07/10 04:56:17;;;;;;;17.42;10.38;;;;;;;18.41;94.45;101932.34;5061076;28;20568;-77
2023/07/10 04:58:58;;;;;;;16.10;9.95;;;;;;;18.70;93.67;101927.44;5059223;28;20045;-77
2023/07/10 05:01:29;;;;;;;15.60;9.80;;;;;;;18.80;93.35;101939.41;5060135;28;20052;-77
2023/07/10 05:03:57;;;;;;;15.43;9.18;;;;;;;18.92;93.16;101944.19;5060421;28;20040;-78
2023/07/10 05:06:25;;;;;;;15.07;8.60;;;;;;;19.01;92.31;101944.69;5060631;28;20549;-76
2023/07/10 05:08:58;;;;;;;13.38;8.40;;;;;;;19.13;91.37;101944.13;5071570;28;20195;-77
2023/07/10 05:11:30;;;;;;;16.27;8.90;;;;;;;19.28;91.29;101942.50;5065813;28;20052;-77
2023/07/10 05:13:58;;;;;;;13.13;7.85;;;;;;;19.39;89.28;101942.81;5067650;28;20041;-76
2023/07/10 05:16:25;;;;;;;12.10;7.55;;;;;;;19.43;87.53;101950.69;5070364;28;20372;-77
2023/07/10 05:18:53;;;;;;;12.68;7.15;;;;;;;19.65;87.16;101942.44;5073096;28;20045;-76
2023/07/10 05:21:20;;;;;;;11.45;7.72;;;;;;;19.90;85.95;101950.09;5063297;28;20591;-76
2023/07/10 05:23:49;;;;;;;10.77;7.07;;;;;;;21.33;81.43;101958.38;5060887;28;20424;-77
2023/07/10 05:26:17;;;;;;;10.52;6.60;;;;;;;23.43;73.97;101944.47;5060144;28;20049;-77
2023/07/10 05:28:44;;;;;;;9.40;6.00;;;;;;;24.93;65.83;101951.97;5071716;28;20099;-77
2023/07/10 05:31:12;;;;;;;11.52;5.82;;;;;;;25.61;63.47;101956.84;5056461;28;20099;-76
2023/07/10 05:33:41;;;;;;;9.07;4.90;;;;;;;26.53;57.71;101956.84;5056566;28;20567;-77
2023/07/10 05:36:13;;;;;;;8.63;5.43;;;;;;;25.20;60.76;101965.25;5047005;28;20076;-76
2023/07/10 05:38:41;;;;;;;8.60;5.13;;;;;;;25.55;60.64;101955.47;5056121;28;20722;-76
2023/07/10 05:41:09;;;;;;;8.00;4.68;;;;;;;25.46;58.81;101958.88;5053296;28;20045;-77
2023/07/10 05:43:36;;;;;;;8.40;4.30;;;;;;;25.30;59.29;101956.47;5061552;28;20048;-77
2023/07/10 05:46:04;;;;;;;7.38;4.90;;;;;;;24.35;61.12;101953.38;5052380;28;20128;-76
2023/07/10 05:48:33;;;;;;;9.85;4.70;;;;;;;23.62;64.39;101957.53;5053718;28;20131;-77
2023/07/10 05:51:00;;;;;;;8.77;5.03;;;;;;;25.22;60.57;101955.22;5055180;28;20651;-75
2023/07/10 05:53:28;;;;;;;9.98;4.63;;;;;;;26.35;58.07;101953.78;5056176;28;20049;-75
2023/07/10 05:55:57;;;;;;;9.02;4.32;;;;;;;26.28;59.11;101958.81;5060907;28;20119;-75
2023/07/10 05:58:29;;;;;;;8.15;4.05;;;;;;;26.01;57.28;101964.53;5054634;28;20048;-76
2023/07/10 06:00:59;;;;;;;7.88;4.32;;;;;;;24.92;59.57;101966.44;5059408;28;20080;-76
2023/07/10 06:03:33;;;;;;;7.00;4.28;;;;;;;25.18;58.42;101972.59;5055310;28;20048;-76
2023/07/10 06:06:05;;;;;;;8.20;4.43;;;;;;;24.04;60.83;101965.47;5058470;28;20052;-75
2023/07/10 06:08:35;;;;;;;7.80;4.50;;;;;;;25.41;58.28;101972.72;5059692;28;20565;-76
2023/07/10 06:11:05;;;;;;;7.65;4.32;;;;;;;27.29;53.03;101969.59;5057320;28;20275;-75
2023/07/10 06:13:33;;;;;;;9.88;4.55;;;;;;;28.05;50.98;101965.88;5058067;28;20049;-76
2023/07/10 06:16:06;;;;;;;7.60;4.45;;;;;;;29.34;48.36;101960.72;5061167;28;20040;-76
2023/07/10 06:18:34;;;;;;;9.25;4.18;;;;;;;30.17;45.26;101967.44;5069822;28;20512;-77
2023/07/10 06:21:02;;;;;;;7.82;4.22;;;;;;;29.94;44.13;101972.38;5075581;28;20040;-77
2023/07/10 06:23:30;;;;;;;8.43;4.40;;;;;;;28.15;46.82;101971.38;5072937;28;20513;-76
2023/07/10 06:26:00;;;;;;;7.80;3.92;;;;;;;26.25;52.11;101974.44;5062828;28;20119;-77
2023/07/10 06:28:34;;;;;;;7.78;4.43;;;;;;;24.90;56.11;101968.38;5074056;28;20049;-74
2023/07/10 06:31:06;;;;;;;9.95;4.38;;;;;;;23.99;58.93;101964.94;5059650;28;20095;-74
2023/07/10 06:33:35;;;;;;;12.55;4.40;;;;;;;23.33;61.21;101967.59;5070463;28;20041;-74
2023/07/10 06:36:04;;;;;;;8.32;4.05;;;;;;;22.88;62.98;101979.41;5066380;28;20045;-74
2023/07/10 06:38:33;;;;;;;4.55;3.00;;;;;;;22.49;62.79;101967.56;5067919;28;20044;-75
2023/07/10 06:41:01;;;;;;;7.50;3.60;;;;;;;22.14;64.05;101970.59;5072014;28;20126;-74
2023/07/10 06:43:28;;;;;;;8.35;3.05;;;;;;;21.90;64.87;101979.19;5074560;28;20044;-74
2023/07/10 06:45:56;;;;;;;7.63;2.75;;;;;;;21.68;65.14;101980.47;5067206;28;20609;-74
2023/07/10 06:48:25;;;;;;;6.13;3.08;;;;;;;21.55;65.42;101985.69;5066844;28;20049;-74
2023/07/10 06:50:54;;;;;;;6.47;2.92;;;;;;;21.43;65.48;101989.09;5064697;28;20053;-74
2023/07/10 06:53:24;;;;;;;8.70;3.05;;;;;;;21.37;67.30;101994.78;5064371;28;20041;-73
2023/07/10 06:56:00;;;;;;;9.13;3.47;;;;;;;21.39;67.91;101988.41;5077541;28;20041;-73
2023/07/10 06:58:32;;;;;;;6.60;2.63;;;;;;;21.40;66.78;101997.31;5068204;28;20045;-74
2023/07/10 07:01:00;;;;;;;8.18;2.35;;;;;;;21.35;66.84;101997.56;5068796;28;20041;-76
2023/07/10 07:03:28;;;;;;;6.60;2.20;;;;;;;21.35;66.88;101986.84;5074979;28;20073;-76
2023/07/10 07:05:56;;;;;;;6.65;2.28;;;;;;;21.39;67.16;101993.78;5058381;28;20045;-76
2023/07/10 07:08:24;;;;;;;7.78;2.60;;;;;;;21.42;66.76;101998.09;5062023;28;20103;-76
2023/07/10 07:10:53;;;;;;;7.85;2.72;;;;;;;21.45;67.11;101997.91;5059231;28;20045;-77
2023/07/10 07:13:20;;;;;;;6.30;2.25;;;;;;;21.49;65.90;102002.13;5059198;28;20038;-76
2023/07/10 07:15:55;;;;;;;14.15;2.88;;;;;;;21.54;66.39;101997.38;5057837;28;20061;-75
2023/07/10 07:18:24;;;;;;;9.35;2.20;;;;;;;21.59;65.78;101999.81;5061737;28;20164;-75
2023/07/10 07:20:56;;;;;;;7.55;1.90;;;;;;;21.64;65.01;102005.75;5059286;28;20491;-76
2023/07/10 07:23:25;;;;;;;6.10;2.15;;;;;;;21.70;65.71;102007.22;5056852;28;20143;-76
2023/07/10 07:25:57;;;;;;;8.80;1.83;;;;;;;21.82;63.90;102005.66;5057671;28;20156;-76
2023/07/10 07:28:24;;;;;;;7.18;2.00;;;;;;;21.86;62.61;102004.47;5081169;28;20508;-76
2023/07/10 07:30:52;;;;;;;8.77;2.15;;;;;;;21.91;62.48;102004.22;5063141;28;20472;-75
2023/07/10 07:33:20;;;;;;;6.93;1.60;;;;;;;21.96;61.50;102007.50;5073182;28;20105;-75
2023/07/10 07:35:48;;;;;;;7.22;1.48;;;;;;;21.99;59.25;102000.13;5078737;28;20045;-76
2023/07/10 07:38:16;;;;;;;10.52;1.65;;;;;;;22.00;58.25;102009.03;5068675;28;20528;-75
2023/07/10 07:40:43;;;;;;;7.90;1.95;;;;;;;22.03;59.36;102000.78;5080868;28;20504;-75
2023/07/10 07:43:10;;;;;;;8.98;1.83;;;;;;;22.08;60.54;102005.88;5059923;28;20048;-75
2023/07/10 07:45:37;;;;;;;5.18;1.67;;;;;;;22.14;60.10;102002.81;5074108;28;20377;-76
2023/07/10 07:48:05;;;;;;;6.68;1.70;;;;;;;22.21;60.06;102016.72;5082251;28;20532;-75
2023/07/10 07:50:32;;;;;;;5.88;1.50;;;;;;;22.30;59.58;102013.47;5071222;28;20568;-75
2023/07/10 07:52:59;;;;;;;8.18;2.08;;;;;;;22.34;58.84;102009.66;5081518;28;20524;-76
2023/07/10 07:55:26;;;;;;;7.57;1.83;;;;;;;22.38;59.35;102008.50;5077734;28;20573;-76
2023/07/10 07:57:53;;;;;;;6.32;1.77;;;;;;;22.48;61.05;102011.50;5073853;28;20045;-76
2023/07/10 08:00:20;;;;;;;8.65;1.48;;;;;;;22.62;60.41;102010.63;5078999;28;20128;-76
2023/07/10 08:02:49;;;;;;;4.68;1.65;;;;;;;22.73;59.37;102007.28;5060713;28;20047;-76
2023/07/10 08:05:16;;;;;;;8.55;2.13;;;;;;;22.80;58.86;102019.38;5080254;28;20596;-77
2023/07/10 08:08:10;;;;;;;7.13;1.70;;;;;;;22.89;59.69;102015.22;5084216;28;20510;-76
2023/07/10 08:10:47;;;;;;;7.25;1.52;;;;;;;22.95;58.39;102010.28;5048114;28;20103;-74
2023/07/10 08:13:18;;;;;;;5.75;1.70;;;;;;;22.99;56.85;102013.69;5064305;28;20476;-75
2023/07/10 08:15:46;;;;;;;5.68;1.75;;;;;;;23.00;56.29;102017.22;5058317;28;20054;-76
2023/07/10 08:18:16;;;;;;;9.65;2.05;;;;;;;22.99;56.48;102005.63;5061074;28;20108;-76
2023/07/10 08:20:44;;;;;;;10.75;1.83;;;;;;;23.03;55.97;102008.97;5061255;28;20557;-76
2023/07/10 08:23:11;;;;;;;9.00;1.48;;;;;;;23.07;55.34;101999.72;5070599;28;20115;-77
2023/07/10 08:25:39;;;;;;;7.93;1.65;;;;;;;23.07;54.30;102005.97;5065812;28;20461;-77
2023/07/10 08:28:12;;;;;;;8.82;2.00;;;;;;;23.08;55.61;102007.69;5048278;28;20531;-76
2023/07/10 08:30:41;;;;;;;7.40;2.35;;;;;;;23.13;56.01;101995.75;5066780;28;20134;-75
2023/07/10 08:33:10;;;;;;;6.60;1.80;;;;;;;23.21;55.44;101994.34;5080829;28;20536;-76
2023/07/10 08:35:59;;;;;;;8.10;2.20;;;;;;;23.25;54.79;101997.69;5072946;28;20058;-77
2023/07/10 08:38:28;;;;;;;7.53;1.85;;;;;;;23.26;55.33;101994.03;5082260;28;20060;-77
2023/07/10 08:41:01;;;;;;;6.20;2.15;;;;;;;23.31;55.38;101999.94;5076963;28;20523;-76
2023/07/10 08:43:34;;;;;;;7.05;1.65;;;;;;;23.36;56.55;101992.44;5067346;28;20045;-76
2023/07/10 08:46:11;;;;;;;7.80;2.03;;;;;;;23.47;55.88;101991.72;5082998;28;20040;-75
2023/07/10 08:48:56;;;;;;;9.10;2.45;;;;;;;23.61;56.32;101996.16;5069769;28;20042;-76
2023/07/10 08:52:06;;;;;;;6.53;2.00;;;;;;;23.74;56.26;102001.59;5065580;28;20482;-76
2023/07/10 08:54:34;;;;;;;9.73;2.03;;;;;;;23.90;54.64;102001.41;5061577;28;20254;-76
2023/07/10 08:57:35;;;;;;;10.38;2.50;;;;;;;24.00;54.01;102002.53;5056924;28;20050;-76
2023/07/10 09:00:10;;;;;;;9.13;2.08;;;;;;;24.08;53.20;102003.84;5053861;28;20118;-77
2023/07/10 09:03:31;;;;;;;7.55;1.90;;;;;;;24.13;52.78;102002.53;5033411;28;20061;-77
2023/07/10 09:06:01;;;;;;;8.50;2.25;;;;;;;24.15;54.39;101995.22;5021018;28;20221;-76
2023/07/10 09:08:32;;;;;;;6.43;2.15;;;;;;;24.24;53.55;101993.69;5021261;28;20042;-76
2023/07/10 09:11:11;;;;;;;6.82;2.10;;;;;;;24.29;53.49;101999.63;5022402;28;20052;-76
2023/07/10 09:14:24;;;;;;;7.40;2.20;;;;;;;24.40;53.82;102000.72;5036901;28;20516;-76
2023/07/10 09:16:59;;;;;;;8.95;2.22;;;;;;;24.50;52.22;101994.53;4983617;28;20055;-76
2023/07/10 09:19:30;;;;;;;9.75;2.00;;;;;;;24.50;51.60;102007.16;4984982;28;20047;-76
2023/07/10 09:21:59;;;;;;;6.32;2.08;;;;;;;24.49;52.66;101995.50;5015699;28;20065;-76
2023/07/10 09:24:26;;;;;;;6.93;2.30;;;;;;;24.59;52.13;101992.16;5020702;28;20414;-76
2023/07/10 09:26:55;;;;;;;8.15;2.13;;;;;;;24.65;52.27;102003.34;5033542;28;20050;-75
2023/07/10 09:29:35;;;;;;;6.25;1.95;;;;;;;24.78;52.06;102003.34;5035859;28;20125;-77
2023/07/10 09:32:18;;;;;;;7.72;1.98;;;;;;;24.91;51.75;102006.03;5029013;28;20069;-76
2023/07/10 09:34:58;;;;;;;7.75;1.98;;;;;;;24.99;50.57;102008.16;5030150;28;20073;-76
2023/07/10 09:37:37;;;;;;;6.97;1.80;;;;;;;25.02;50.44;101999.84;5035286;28;20041;-75
2023/07/10 09:40:46;;;;;;;8.15;1.50;;;;;;;25.12;49.08;101998.19;5036804;28;20046;-77
2023/07/10 09:43:22;;;;;;;7.10;1.73;;;;;;;25.16;49.92;101993.41;5017991;28;20218;-76
2023/07/10 09:45:59;;;;;;;5.13;1.65;;;;;;;25.28;48.27;102000.59;5039050;28;20049;-76
2023/07/10 09:48:35;;;;;;;5.35;1.80;;;;;;;25.34;48.06;101999.28;5036516;28;20510;-76
2023/07/10 09:51:12;;;;;;;5.95;1.38;;;;;;;25.39;48.02;101998.94;5024491;28;20069;-76
2023/07/10 09:53:46;;;;;;;7.32;1.63;;;;;;;25.45;49.22;101998.50;5029853;28;20469;-75
2023/07/10 09:56:35;;;;;;;5.20;1.70;;;;;;;25.60;49.33;101992.91;5026039;28;20573;-75
2023/07/10 09:59:20;;;;;;;6.85;1.95;;;;;;;25.70;47.08;101994.78;5024322;28;20502;-75
2023/07/10 10:01:51;;;;;;;5.18;1.42;;;;;;;25.70;45.98;101985.84;5038899;28;20037;-76
2023/07/10 10:04:29;;;;;;;6.13;2.08;;;;;;;25.66;47.04;101989.75;5034871;28;20069;-76
2023/07/10 10:07:05;;;;;;;6.32;1.95;;;;;;;25.72;46.77;101987.44;5015019;28;20052;-75
2023/07/10 10:09:34;;;;;;;5.10;1.45;;;;;;;25.83;47.11;101988.44;5033190;28;20042;-75
2023/07/10 10:12:27;;;;;;;7.07;1.65;;;;;;;25.89;46.38;101987.97;5040892;28;20387;-75
2023/07/10 10:15:05;;;;;;;6.20;1.88;;;;;;;25.91;46.01;101985.16;5025002;28;20053;-75
2023/07/10 10:17:42;;;;;;;8.43;1.58;;;;;;;25.97;46.64;101988.25;5018374;28;20128;-76
2023/07/10 10:20:28;;;;;;;3.75;1.60;;;;;;;26.05;46.31;101991.19;5041527;28;20057;-76
2023/07/10 10:22:55;;;;;;;5.25;1.70;;;;;;;26.16;44.38;101994.94;5015345;28;20521;-76
2023/07/10 10:25:46;;;;;;;6.00;1.40;;;;;;;26.21;44.28;101990.00;5036770;28;20045;-75
2023/07/10 10:29:04;;;;;;;7.65;1.77;;;;;;;26.31;44.52;101980.19;5031181;28;20054;-75
2023/07/10 10:31:41;;;;;;;6.93;2.00;;;;;;;26.39;44.21;101984.13;4999727;28;20066;-76
2023/07/10 10:34:59;;;;;;;5.68;1.40;;;;;;;26.40;43.28;101986.69;5029811;28;20096;-75
2023/07/10 10:37:51;;;;;;;4.88;1.33;;;;;;;26.40;43.68;101984.00;5017934;28;20053;-76
2023/07/10 10:40:29;;;;;;;6.35;1.38;;;;;;;26.52;43.47;101979.44;5025498;28;20054;-75
2023/07/10 10:43:29;;;;;;;5.43;1.60;;;;;;;26.69;43.48;101985.34;5027345;28;20041;-76
2023/07/10 10:46:30;;;;;;;7.28;1.60;;;;;;;26.66;43.85;101987.31;5038009;28;20056;-75
2023/07/10 10:49:32;;;;;;;4.45;1.40;;;;;;;26.80;42.76;101996.19;5010826;28;20049;-76
2023/07/10 10:52:25;;;;;;;5.82;1.63;;;;;;;26.87;42.84;101989.28;5039835;28;20144;-76
2023/07/10 10:55:30;;;;;;;5.00;1.25;;;;;;;26.96;42.12;101990.38;5017105;28;20569;-76
2023/07/10 10:58:21;;;;;;;3.67;1.30;;;;;;;27.11;43.34;101978.25;5025272;28;20516;-75
2023/07/10 11:01:06;;;;;;;5.30;1.30;;;;;;;27.26;41.84;101978.84;5019318;28;20050;-75
2023/07/10 11:03:45;;;;;;;11.40;1.75;;;;;;;27.34;41.96;101980.91;5044840;28;20109;-75
2023/07/10 11:06:53;;;;;;;5.75;1.40;;;;;;;27.49;41.83;101976.06;5027579;28;20082;-75
2023/07/10 11:09:37;;;;;;;7.13;1.40;;;;;;;27.57;41.50;101978.97;5028960;28;20133;-75
2023/07/10 11:12:20;;;;;;;5.35;1.30;;;;;;;27.46;41.14;101972.75;5029572;28;20316;-75
2023/07/10 11:14:55;;;;;;;5.85;1.20;;;;;;;27.41;40.70;101978.53;5025270;28;20042;-75
2023/07/10 11:17:23;;;;;;;5.05;1.20;;;;;;;27.41;39.90;101986.66;5035454;28;20565;-77
2023/07/10 11:19:52;;;;;;;14.70;1.90;;;;;;;27.41;39.29;101984.78;5027481;28;20502;-76
2023/07/10 11:22:28;;;;;;;8.90;1.48;;;;;;;27.46;40.30;101983.59;5037326;28;20050;-75
2023/07/10 11:24:58;;;;;;;5.53;1.40;;;;;;;27.45;40.20;101981.88;5021066;28;20506;-76
2023/07/10 11:27:32;;;;;;;8.68;1.55;;;;;;;27.54;41.56;101973.81;5006235;28;20503;-75
2023/07/10 11:30:14;;;;;;;5.18;1.38;;;;;;;27.79;39.60;101997.94;5022582;28;20065;-76
2023/07/10 11:33:20;;;;;;;7.50;1.52;;;;;;;27.91;39.90;101988.75;5030423;28;20517;-75
2023/07/10 11:36:25;;;;;;;6.25;1.77;;;;;;;27.94;39.96;101987.63;5031507;28;20527;-76
2023/07/10 11:39:09;;;;;;;7.75;1.40;;;;;;;28.01;39.40;101984.25;5029458;28;20065;-75
2023/07/10 11:41:46;;;;;;;9.73;1.80;;;;;;;28.17;38.68;101983.78;5031573;28;20084;-76
2023/07/10 11:44:21;;;;;;;9.52;1.80;;;;;;;28.39;38.47;101973.78;5013608;28;20125;-75
2023/07/10 11:47:04;;;;;;;4.18;1.40;;;;;;;28.38;39.58;101972.03;5043343;28;20156;-75